createdAt,value
2024-03-01T00:00:01.745Z,97184.75
2024-03-01T00:02:28.505Z,97185.56
2024-03-01T00:04:55.189Z,97164.28
2024-03-01T00:07:22.020Z,97181.81
2024-03-01T00:09:48.753Z,97064.56
2024-03-01T00:12:15.514Z,97174.53
2024-03-01T00:14:42.252Z,97176.69
2024-03-01T00:17:09.046Z,97154.69
2024-03-01T00:19:35.841Z,97149.72
2024-03-01T00:22:02.601Z,97154.59
2024-03-01T00:24:29.402Z,97175.06
2024-03-01T00:26:56.051Z,97122.88
2024-03-01T00:29:22.857Z,97078.88
2024-03-01T00:31:49.937Z,97172.03
2024-03-01T00:34:16.776Z,97164.44
2024-03-01T00:36:43.605Z,97157.50
2024-03-01T00:39:10.314Z,97115.00
2024-03-01T00:41:37.017Z,97153.81
2024-03-01T00:44:03.983Z,97152.75
2024-03-01T00:46:30.824Z,97157.78
2024-03-01T00:48:57.587Z,97143.31
2024-03-01T00:51:24.419Z,97127.09
2024-03-01T00:53:51.315Z,97061.13
2024-03-01T00:56:18.587Z,96668.72
2024-03-01T00:58:45.550Z,97127.34
2024-03-01T01:01:14.012Z,97102.16
2024-03-01T01:03:41.550Z,97100.69
2024-03-01T01:06:08.457Z,97096.91
2024-03-01T01:08:35.183Z,97084.00
2024-03-01T01:11:02.012Z,97052.03
2024-03-01T01:13:29.180Z,97055.19
2024-03-01T01:15:56.006Z,97051.00
2024-03-01T01:18:23.710Z,97017.38
2024-03-01T01:20:50.508Z,97037.81
2024-03-01T01:23:17.267Z,97054.38
2024-03-01T01:25:44.195Z,97032.75
2024-03-01T01:28:11.052Z,97057.75
2024-03-01T01:30:38.712Z,96963.81
2024-03-01T01:33:06.433Z,97033.13
2024-03-01T01:35:33.626Z,97026.63
2024-03-01T01:38:00.800Z,96940.69
2024-03-01T01:40:31.909Z,96998.91
2024-03-01T01:43:04.099Z,96989.84
2024-03-01T01:45:33.390Z,96997.97
2024-03-01T01:48:03.826Z,97006.34
2024-03-01T01:50:32.007Z,96949.97
2024-03-01T01:53:00.587Z,96954.84
2024-03-01T01:55:28.332Z,96950.50
2024-03-01T01:57:55.238Z,96956.75
2024-03-01T02:00:22.002Z,96982.28
2024-03-01T02:02:51.972Z,96987.03
2024-03-01T02:05:19.669Z,96966.78
2024-03-01T02:07:49.335Z,96958.44
2024-03-01T02:10:19.592Z,96969.56
2024-03-01T02:12:56.853Z,96928.16
2024-03-01T02:15:27.497Z,96986.50
2024-03-01T02:17:59.073Z,96930.06
2024-03-01T02:20:28.940Z,96981.97
2024-03-01T02:22:59.517Z,96997.56
2024-03-01T02:25:26.322Z,96981.44
2024-03-01T02:27:53.224Z,96951.00
2024-03-01T02:30:20.124Z,96922.28
2024-03-01T02:32:47.418Z,96994.06
2024-03-01T02:35:14.352Z,96977.03
2024-03-01T02:37:44.659Z,96977.13
2024-03-01T02:40:12.633Z,96989.75
2024-03-01T02:42:39.379Z,96989.03
2024-03-01T02:45:06.485Z,96991.50
2024-03-01T02:47:33.270Z,96993.25
2024-03-01T02:50:00.004Z,96985.41
2024-03-01T02:52:26.770Z,96998.06
2024-03-01T02:54:53.537Z,96976.69
2024-03-01T02:57:20.241Z,97003.75
2024-03-01T02:59:47.080Z,97002.13
2024-03-01T03:02:13.807Z,96984.69
2024-03-01T03:04:40.596Z,96983.22
2024-03-01T03:07:10.819Z,96980.31
2024-03-01T03:09:47.362Z,96989.59
2024-03-01T03:12:14.345Z,96993.19
2024-03-01T03:14:41.180Z,96988.81
2024-03-01T03:17:08.236Z,96958.78
2024-03-01T03:19:36.794Z,96985.16
2024-03-01T03:22:10.630Z,96981.47
2024-03-01T03:24:41.355Z,96979.72
2024-03-01T03:27:08.727Z,96949.09
2024-03-01T03:29:36.955Z,96954.78
2024-03-01T03:32:07.266Z,96949.13
2024-03-01T03:34:37.080Z,96955.00
2024-03-01T03:37:04.137Z,96953.16
2024-03-01T03:39:30.836Z,96902.06
2024-03-01T03:41:57.560Z,96903.19
2024-03-01T03:44:24.237Z,96954.47
2024-03-01T03:46:51.009Z,96944.66
2024-03-01T03:49:17.750Z,96943.00
2024-03-01T03:51:44.563Z,96955.19
2024-03-01T03:54:15.426Z,96948.31
2024-03-01T03:56:43.446Z,96945.38
2024-03-01T03:59:10.335Z,96942.34
2024-03-01T04:01:37.799Z,96892.19
2024-03-01T04:04:05.326Z,96944.94
2024-03-01T04:06:32.170Z,96866.41
2024-03-01T04:08:58.878Z,96937.75
2024-03-01T04:11:25.615Z,96945.25
2024-03-01T04:13:52.421Z,96940.69
2024-03-01T04:16:19.470Z,96940.19
2024-03-01T04:18:46.230Z,96888.38
2024-03-01T04:21:12.985Z,96936.59
2024-03-01T04:23:39.934Z,96937.47
2024-03-01T04:26:10.791Z,96924.16
2024-03-01T04:28:41.085Z,96905.13
2024-03-01T04:31:08.628Z,96903.66
2024-03-01T04:33:39.982Z,96916.31
2024-03-01T04:36:07.526Z,96920.69
2024-03-01T04:38:34.735Z,96912.94
2024-03-01T04:41:01.503Z,96894.50
2024-03-01T04:43:28.522Z,96912.09
2024-03-01T04:45:55.402Z,96905.63
2024-03-01T04:48:22.317Z,96915.00
2024-03-01T04:50:49.075Z,96914.28
2024-03-01T04:53:15.837Z,96916.69
2024-03-01T04:55:42.613Z,96916.72
2024-03-01T04:58:09.426Z,96919.78
2024-03-01T05:00:36.348Z,96912.09
2024-03-01T05:03:08.427Z,96855.25
2024-03-01T05:05:35.515Z,96868.34
2024-03-01T05:08:02.298Z,96907.28
2024-03-01T05:10:29.162Z,96927.94
2024-03-01T05:12:55.995Z,96923.72
2024-03-01T05:15:22.993Z,96943.22
2024-03-01T05:17:49.871Z,96937.53
2024-03-01T05:20:17.423Z,96868.75
2024-03-01T05:22:44.685Z,96934.66
2024-03-01T05:25:18.581Z,96885.47
2024-03-01T05:27:47.878Z,96935.72
2024-03-01T05:30:27.645Z,96937.09
2024-03-01T05:33:04.711Z,96863.69
2024-03-01T05:35:31.773Z,96937.34
2024-03-01T05:38:00.081Z,96932.66
2024-03-01T05:40:27.444Z,96887.25
2024-03-01T05:42:55.116Z,96932.44
2024-03-01T05:45:22.465Z,96929.59
2024-03-01T05:47:49.593Z,96865.41
2024-03-01T05:50:16.747Z,96940.13
2024-03-01T05:52:44.837Z,96941.19
2024-03-01T05:55:15.635Z,96937.22
2024-03-01T05:57:43.067Z,96902.34
2024-03-01T06:00:19.708Z,96951.75
2024-03-01T06:02:48.133Z,96880.41
2024-03-01T06:05:15.715Z,96925.44
2024-03-01T06:07:43.323Z,96967.13
2024-03-01T06:10:10.728Z,96893.59
2024-03-01T06:12:37.535Z,96927.41
2024-03-01T06:15:05.770Z,96965.13
2024-03-01T06:17:33.896Z,96962.75
2024-03-01T06:20:01.224Z,96963.81
2024-03-01T06:22:30.926Z,96969.50
2024-03-01T06:24:57.978Z,96957.72
2024-03-01T06:27:24.873Z,96960.13
2024-03-01T06:29:52.025Z,96946.16
2024-03-01T06:32:18.791Z,96957.06
2024-03-01T06:34:48.220Z,96941.31
2024-03-01T06:37:15.438Z,96949.34
2024-03-01T06:39:42.476Z,96945.47
2024-03-01T06:42:09.184Z,96894.94
2024-03-01T06:44:35.925Z,96947.06
2024-03-01T06:47:06.325Z,96939.06
2024-03-01T06:49:38.462Z,96951.50
2024-03-01T06:52:05.252Z,96890.56
2024-03-01T06:54:32.056Z,96953.06
2024-03-01T06:56:59.774Z,96965.47
2024-03-01T06:59:26.479Z,96915.91
2024-03-01T07:01:53.331Z,96972.66
2024-03-01T07:04:22.034Z,96953.84
2024-03-01T07:06:48.954Z,96955.59
2024-03-01T07:09:15.768Z,96936.88
2024-03-01T07:11:42.495Z,96898.63
2024-03-01T07:14:09.665Z,96947.63
2024-03-01T07:16:36.533Z,96944.66
2024-03-01T07:19:03.390Z,96687.91
2024-03-01T07:21:30.221Z,96876.03
2024-03-01T07:23:57.209Z,96946.06
2024-03-01T07:26:23.892Z,96948.06
2024-03-01T07:28:50.636Z,96899.75
2024-03-01T07:31:17.499Z,96933.03
2024-03-01T07:33:44.290Z,96924.25
2024-03-01T07:36:13.594Z,96904.66
2024-03-01T07:38:40.791Z,96937.00
2024-03-01T07:41:07.902Z,96894.97
2024-03-01T07:43:34.828Z,96963.66
2024-03-01T07:46:01.769Z,96958.19
2024-03-01T07:48:28.796Z,96956.78
2024-03-01T07:50:55.788Z,96956.72
2024-03-01T07:53:22.448Z,96959.09
2024-03-01T07:55:49.262Z,96942.94
2024-03-01T07:58:16.764Z,96954.56
2024-03-01T08:00:43.998Z,96935.91
2024-03-01T08:03:11.338Z,96935.28
2024-03-01T08:05:39.718Z,96902.16
2024-03-01T08:08:09.267Z,96876.75
2024-03-01T08:10:41.645Z,96858.66
2024-03-01T08:13:09.208Z,96945.63
2024-03-01T08:15:39.791Z,96940.44
2024-03-01T08:18:23.582Z,96538.38
2024-03-01T08:20:56.884Z,97014.91
2024-03-01T08:23:27.441Z,96897.84
2024-03-01T08:25:54.902Z,96881.72
2024-03-01T08:28:31.021Z,96899.78
2024-03-01T08:30:58.222Z,96926.16
2024-03-01T08:33:25.048Z,96942.25
2024-03-01T08:35:51.920Z,96950.38
2024-03-01T08:38:40.962Z,96934.28
2024-03-01T08:41:09.674Z,96917.47
2024-03-01T08:43:37.891Z,96923.66
2024-03-01T08:46:06.571Z,96926.34
2024-03-01T08:48:34.867Z,96931.16
2024-03-01T08:51:02.525Z,96920.38
2024-03-01T08:53:35.430Z,96929.38
2024-03-01T08:56:02.150Z,96917.06
2024-03-01T08:58:32.006Z,96912.81
2024-03-01T09:01:00.101Z,96896.78
2024-03-01T09:03:30.960Z,96904.81
2024-03-01T09:05:59.966Z,96916.81
2024-03-01T09:08:36.155Z,96936.66
2024-03-01T09:11:03.929Z,96960.34
2024-03-01T09:13:32.492Z,96942.47
2024-03-01T09:15:59.817Z,96940.38
2024-03-01T09:18:29.222Z,96923.53
2024-03-01T09:20:56.969Z,96925.91
2024-03-01T09:23:24.073Z,96933.13
2024-03-01T09:25:50.823Z,96933.06
2024-03-01T09:28:20.934Z,96928.16
2024-03-01T09:30:52.644Z,96939.91
2024-03-01T09:33:24.200Z,96938.56
2024-03-01T09:35:52.159Z,96954.25
2024-03-01T09:38:22.582Z,96939.09
2024-03-01T09:40:52.300Z,96925.50
2024-03-01T09:43:56.000Z,96920.53
2024-03-01T09:46:28.972Z,96916.72
2024-03-01T09:49:19.814Z,96926.72
2024-03-01T09:51:46.486Z,96925.44
2024-03-01T09:54:29.654Z,96915.94
2024-03-01T09:57:30.221Z,96912.94
2024-03-01T10:00:13.458Z,96913.84
2024-03-01T10:02:52.767Z,96910.00
2024-03-01T10:05:49.244Z,96929.53
2024-03-01T10:08:46.930Z,96920.06
2024-03-01T10:11:28.016Z,96862.56
2024-03-01T10:14:15.075Z,96915.72
2024-03-01T10:16:55.789Z,96914.38
2024-03-01T10:19:40.528Z,96910.97
2024-03-01T10:22:28.834Z,96907.06
2024-03-01T10:25:33.159Z,96899.22
2024-03-01T10:28:26.099Z,96898.84
2024-03-01T10:31:30.263Z,96891.16
2024-03-01T10:34:07.533Z,96888.59
2024-03-01T10:36:44.111Z,96772.75
2024-03-01T10:39:16.143Z,96884.78
2024-03-01T10:42:20.375Z,96883.78
2024-03-01T10:45:06.472Z,96887.28
2024-03-01T10:47:34.540Z,96826.25
2024-03-01T10:50:24.347Z,96887.50
2024-03-01T10:53:20.017Z,96886.19
2024-03-01T10:56:07.369Z,96885.22
2024-03-01T10:58:46.306Z,96873.47
2024-03-01T11:01:23.490Z,96858.66
2024-03-01T11:03:58.773Z,96870.19
2024-03-01T11:06:45.417Z,96864.66
2024-03-01T11:09:22.680Z,96860.81
2024-03-01T11:11:57.868Z,96862.06
2024-03-01T11:14:27.017Z,96859.56
2024-03-01T11:16:56.610Z,96856.22
2024-03-01T11:19:26.199Z,96846.91
2024-03-01T11:22:20.729Z,96824.22
2024-03-01T11:24:59.283Z,96832.16
2024-03-01T11:27:30.470Z,96783.50
2024-03-01T11:30:08.009Z,96804.47
2024-03-01T11:32:40.496Z,96823.81
2024-03-01T11:35:22.871Z,96814.69
2024-03-01T11:38:36.033Z,96803.63
2024-03-01T11:41:15.033Z,96743.38
2024-03-01T11:43:56.955Z,96790.66
2024-03-01T11:46:51.088Z,96788.78
2024-03-01T11:49:42.325Z,96788.00
2024-03-01T11:52:48.905Z,96793.22
2024-03-01T11:55:53.236Z,96783.22
2024-03-01T11:58:26.408Z,96782.41
2024-03-01T12:01:25.470Z,96773.78
2024-03-01T12:04:11.512Z,96775.09
2024-03-01T12:07:10.908Z,96755.22
2024-03-01T12:09:56.302Z,96762.81
2024-03-01T12:12:28.660Z,96765.97
2024-03-01T12:15:07.204Z,96781.03
2024-03-01T12:17:47.240Z,96764.34
2024-03-01T12:20:15.869Z,96775.38
2024-03-01T12:23:08.855Z,96767.56
2024-03-01T12:25:38.908Z,96770.75
2024-03-01T12:28:35.123Z,96758.72
2024-03-01T12:31:13.565Z,96738.13
2024-03-01T12:34:02.775Z,96738.97
2024-03-01T12:36:48.275Z,96737.75
2024-03-01T12:39:21.482Z,96732.19
2024-03-01T12:42:08.358Z,96737.72
2024-03-01T12:45:06.357Z,96735.66
2024-03-01T12:47:38.901Z,96732.50
2024-03-01T12:50:32.311Z,96733.34
2024-03-01T12:53:34.809Z,96728.94
2024-03-01T12:56:11.032Z,96715.50
2024-03-01T12:59:10.795Z,96723.81
2024-03-01T13:02:04.338Z,96732.44
2024-03-01T13:04:42.611Z,96738.81
2024-03-01T13:07:13.414Z,96730.81
2024-03-01T13:09:46.797Z,96635.78
2024-03-01T13:12:20.218Z,96697.16
2024-03-01T13:15:09.271Z,96724.84
2024-03-01T13:18:10.422Z,96714.75
2024-03-01T13:21:03.260Z,96712.28
2024-03-01T13:23:57.881Z,96717.38
2024-03-01T13:26:45.504Z,96724.78
2024-03-01T13:29:19.429Z,96665.72
2024-03-01T13:32:10.902Z,96715.69
2024-03-01T13:34:42.062Z,96703.44
2024-03-01T13:37:19.610Z,96730.88
2024-03-01T13:39:53.286Z,96712.69
2024-03-01T13:42:26.952Z,96714.28
2024-03-01T13:45:13.346Z,96691.25
2024-03-01T13:47:53.016Z,96697.59
2024-03-01T13:50:34.290Z,96703.16
2024-03-01T13:53:05.890Z,96724.63
2024-03-01T13:55:39.805Z,96647.53
2024-03-01T13:58:07.461Z,96719.09
2024-03-01T14:00:35.433Z,96652.31
2024-03-01T14:03:03.160Z,96743.34
2024-03-01T14:05:30.961Z,96660.59
2024-03-01T14:07:59.464Z,96649.13
2024-03-01T14:10:27.318Z,96584.34
2024-03-01T14:12:55.440Z,96675.34
2024-03-01T14:15:23.142Z,96702.75
2024-03-01T14:17:51.844Z,96614.09
2024-03-01T14:20:20.374Z,96691.66
2024-03-01T14:22:55.541Z,96738.53
2024-03-01T14:25:25.545Z,96732.59
2024-03-01T14:27:58.361Z,96719.47
2024-03-01T14:30:27.086Z,96728.22
2024-03-01T14:33:14.246Z,96650.63
2024-03-01T14:35:42.462Z,96724.59
2024-03-01T14:38:16.587Z,96643.47
2024-03-01T14:41:01.002Z,96725.78
2024-03-01T14:43:29.877Z,96663.34
2024-03-01T14:45:59.912Z,96720.53
2024-03-01T14:48:34.154Z,96691.03
2024-03-01T14:51:11.012Z,96730.84
2024-03-01T14:53:40.696Z,96727.41
2024-03-01T14:56:11.555Z,96733.06
2024-03-01T14:58:40.588Z,96741.53
2024-03-01T15:01:08.321Z,96740.41
2024-03-01T15:03:36.705Z,96728.41
2024-03-01T15:06:08.849Z,96728.38
2024-03-01T15:08:36.497Z,96682.97
2024-03-01T15:11:14.788Z,96726.72
2024-03-01T15:13:44.999Z,96717.69
2024-03-01T15:16:20.641Z,96679.91
2024-03-01T15:18:47.922Z,96718.13
2024-03-01T15:21:16.097Z,96655.59
2024-03-01T15:23:44.756Z,96722.84
2024-03-01T15:26:12.062Z,96735.53
2024-03-01T15:28:40.240Z,96728.47
2024-03-01T15:31:09.027Z,96645.75
2024-03-01T15:33:35.910Z,96729.97
2024-03-01T15:36:04.056Z,96716.31
2024-03-01T15:38:32.187Z,96718.00
2024-03-01T15:40:59.191Z,96705.28
2024-03-01T15:43:27.091Z,96611.00
2024-03-01T15:45:54.485Z,96678.88
2024-03-01T15:48:22.175Z,96721.06
2024-03-01T15:50:49.044Z,96717.97
2024-03-01T15:53:20.564Z,96632.66
2024-03-01T15:55:57.989Z,96713.91
2024-03-01T15:58:27.479Z,96715.56
2024-03-01T16:00:55.732Z,96723.78
2024-03-01T16:03:23.377Z,96727.44
2024-03-01T16:05:50.262Z,96729.88
2024-03-01T16:08:23.827Z,96733.06
2024-03-01T16:10:59.155Z,96690.50
2024-03-01T16:13:33.833Z,96663.78
2024-03-01T16:16:02.127Z,96713.53
2024-03-01T16:18:32.245Z,96688.56
2024-03-01T16:21:00.159Z,96621.50
2024-03-01T16:23:27.660Z,96642.44
2024-03-01T16:25:55.145Z,96714.66
2024-03-01T16:28:24.290Z,96693.09
2024-03-01T16:30:57.216Z,96685.19
2024-03-01T16:33:24.179Z,96640.97
2024-03-01T16:36:07.825Z,96624.63
2024-03-01T16:38:37.356Z,96682.84
2024-03-01T16:41:07.293Z,96698.41
2024-03-01T16:43:46.902Z,96693.66
2024-03-01T16:46:28.686Z,96677.78
2024-03-01T16:48:56.192Z,96680.59
2024-03-01T16:51:37.828Z,96659.53
2024-03-01T16:54:06.838Z,96681.06
2024-03-01T16:56:39.356Z,96675.94
2024-03-01T16:59:08.799Z,96691.78
2024-03-01T17:01:47.149Z,96641.13
2024-03-01T17:04:17.487Z,96690.66
2024-03-01T17:06:47.714Z,96682.63
2024-03-01T17:09:21.865Z,96674.25
2024-03-01T17:11:51.101Z,96670.31
2024-03-01T17:14:18.548Z,96703.97
2024-03-01T17:16:46.689Z,96725.84
2024-03-01T17:19:25.744Z,96753.94
2024-03-01T17:22:05.501Z,96748.19
2024-03-01T17:24:32.203Z,96763.19
2024-03-01T17:26:59.303Z,96756.03
2024-03-01T17:29:26.402Z,96716.91
2024-03-01T17:31:53.169Z,96730.22
2024-03-01T17:34:19.975Z,96745.22
2024-03-01T17:36:46.671Z,96741.38
2024-03-01T17:39:13.805Z,96663.81
2024-03-01T17:41:41.032Z,96731.00
2024-03-01T17:44:07.818Z,96752.16
2024-03-01T17:46:34.776Z,96727.41
2024-03-01T17:49:02.125Z,96738.56
2024-03-01T17:51:29.408Z,96746.63
2024-03-01T17:53:56.526Z,96671.75
2024-03-01T17:56:23.337Z,96704.56
2024-03-01T17:58:50.046Z,96747.53
2024-03-01T18:01:17.154Z,96748.44
2024-03-01T18:03:43.949Z,96736.34
2024-03-01T18:06:10.704Z,96728.31
2024-03-01T18:08:37.701Z,96723.44
2024-03-01T18:11:04.696Z,96729.19
2024-03-01T18:13:31.530Z,96741.91
2024-03-01T18:15:58.387Z,96684.44
2024-03-01T18:18:25.496Z,96748.28
2024-03-01T18:20:52.589Z,96743.91
2024-03-01T18:23:19.291Z,96748.97
2024-03-01T18:25:46.153Z,96741.91
2024-03-01T18:28:12.990Z,96712.72
2024-03-01T18:30:39.781Z,96713.03
2024-03-01T18:33:06.566Z,96722.72
2024-03-01T18:35:33.389Z,96729.91
2024-03-01T18:38:00.168Z,96736.63
2024-03-01T18:40:26.941Z,96737.09
2024-03-01T18:42:54.626Z,96729.84
2024-03-01T18:45:21.479Z,96727.66
2024-03-01T18:47:48.413Z,96736.34
2024-03-01T18:50:15.132Z,96726.50
2024-03-01T18:52:42.048Z,96724.47
2024-03-01T18:55:09.141Z,96664.63
2024-03-01T18:57:37.900Z,96721.97
2024-03-01T19:00:05.696Z,96736.19
2024-03-01T19:02:32.952Z,96718.81
2024-03-01T19:05:00.151Z,96679.72
2024-03-01T19:07:28.237Z,96712.88
2024-03-01T19:09:55.126Z,96653.25
2024-03-01T19:12:23.878Z,96720.66
2024-03-01T19:14:51.138Z,96720.16
2024-03-01T19:17:18.240Z,96523.78
2024-03-01T19:19:45.254Z,96728.72
2024-03-01T19:22:12.194Z,96685.03
2024-03-01T19:24:39.084Z,96735.53
2024-03-01T19:27:05.991Z,96720.94
2024-03-01T19:29:32.922Z,96695.34
2024-03-01T19:32:00.821Z,96718.81
2024-03-01T19:34:28.483Z,96687.22
2024-03-01T19:36:55.413Z,96726.94
2024-03-01T19:39:22.944Z,96716.50
2024-03-01T19:41:52.779Z,96722.53
2024-03-01T19:44:20.695Z,96721.84
2024-03-01T19:46:47.613Z,96728.53
2024-03-01T19:49:14.569Z,96721.59
2024-03-01T19:51:41.536Z,96714.16
2024-03-01T19:54:08.645Z,96737.25
2024-03-01T19:56:35.512Z,96717.19
2024-03-01T19:59:03.810Z,96653.44
2024-03-01T20:01:31.981Z,96629.19
2024-03-01T20:04:01.782Z,96717.25
2024-03-01T20:06:30.053Z,96732.72
2024-03-01T20:08:56.956Z,96733.50
2024-03-01T20:11:24.531Z,96737.13
2024-03-01T20:13:51.689Z,96737.88
2024-03-01T20:16:18.698Z,96746.50
2024-03-01T20:18:45.520Z,96750.81
2024-03-01T20:21:12.341Z,96724.50
2024-03-01T20:23:45.834Z,96728.31
2024-03-01T20:26:17.522Z,96653.13
2024-03-01T20:28:44.491Z,96739.00
2024-03-01T20:31:12.006Z,96729.59
2024-03-01T20:33:38.887Z,96672.31
2024-03-01T20:36:05.855Z,96747.34
2024-03-01T20:38:34.370Z,96727.50
2024-03-01T20:41:01.308Z,96729.91
2024-03-01T20:43:28.405Z,96714.81
2024-03-01T20:45:55.356Z,96604.09
2024-03-01T20:48:22.601Z,96667.59
2024-03-01T20:50:50.339Z,96698.22
2024-03-01T20:53:17.455Z,96697.25
2024-03-01T20:55:44.228Z,96624.88
2024-03-01T20:58:11.756Z,96684.13
2024-03-01T21:00:38.637Z,96692.22
2024-03-01T21:03:06.248Z,96688.16
2024-03-01T21:05:33.322Z,96637.72
2024-03-01T21:08:00.483Z,96664.84
2024-03-01T21:10:31.050Z,96665.81
2024-03-01T21:12:57.919Z,96677.00
2024-03-01T21:15:24.674Z,96673.28
2024-03-01T21:17:53.114Z,96681.41
2024-03-01T21:20:21.543Z,96675.78
2024-03-01T21:22:53.488Z,96650.25
2024-03-01T21:25:22.690Z,96621.63
2024-03-01T21:27:50.931Z,96656.91
2024-03-01T21:30:18.688Z,96683.47
2024-03-01T21:32:45.480Z,96654.63
2024-03-01T21:35:12.261Z,96661.94
2024-03-01T21:37:38.988Z,96659.66
2024-03-01T21:40:26.046Z,96655.88
2024-03-01T21:42:52.831Z,96639.00
2024-03-01T21:45:19.658Z,96642.44
2024-03-01T21:47:46.852Z,96664.94
2024-03-01T21:50:13.969Z,96662.59
2024-03-01T21:52:43.832Z,96674.91
2024-03-01T21:55:10.782Z,96599.78
2024-03-01T21:57:37.760Z,96638.22
2024-03-01T22:00:07.402Z,96653.47
2024-03-01T22:02:34.957Z,96661.81
2024-03-01T22:05:03.770Z,96654.91
2024-03-01T22:07:31.736Z,96638.44
2024-03-01T22:09:58.826Z,96646.78
2024-03-01T22:12:25.687Z,96646.94
2024-03-01T22:14:52.428Z,96570.31
2024-03-01T22:17:19.082Z,96621.25
2024-03-01T22:19:45.765Z,96631.19
2024-03-01T22:22:12.597Z,96626.84
2024-03-01T22:24:41.064Z,96624.88
2024-03-01T22:27:07.973Z,96588.81
2024-03-01T22:29:34.952Z,96634.09
2024-03-01T22:32:02.616Z,96566.63
2024-03-01T22:34:29.934Z,96615.44
2024-03-01T22:36:56.790Z,96611.38
2024-03-01T22:39:23.706Z,96567.00
2024-03-01T22:41:50.439Z,96611.97
2024-03-01T22:44:17.216Z,96611.22
2024-03-01T22:46:44.060Z,96608.03
2024-03-01T22:49:14.386Z,96615.66
2024-03-01T22:51:41.235Z,96612.41
2024-03-01T22:54:11.160Z,96530.59
2024-03-01T22:56:38.296Z,96605.88
2024-03-01T22:59:05.154Z,96543.66
2024-03-01T23:01:32.734Z,96552.78
2024-03-01T23:03:59.783Z,96597.50
2024-03-01T23:06:27.670Z,96590.91
2024-03-01T23:09:00.235Z,96592.84
2024-03-01T23:11:41.594Z,96594.84
2024-03-01T23:14:39.800Z,96608.00
2024-03-01T23:17:08.407Z,96590.47
2024-03-01T23:19:37.249Z,96553.50
2024-03-01T23:22:05.961Z,96616.59
2024-03-01T23:24:33.318Z,96573.66
2024-03-01T23:27:00.833Z,96616.00
2024-03-01T23:29:27.587Z,96605.34
2024-03-01T23:31:54.302Z,96593.66
2024-03-01T23:34:20.998Z,96586.31
2024-03-01T23:36:47.818Z,96587.84
2024-03-01T23:39:14.640Z,96593.81
2024-03-01T23:41:41.405Z,96585.81
2024-03-01T23:44:08.206Z,96516.88
2024-03-01T23:46:34.951Z,96543.25
2024-03-01T23:49:01.719Z,96582.88
2024-03-01T23:51:28.564Z,96506.09
2024-03-01T23:53:55.363Z,96577.28
2024-03-01T23:56:22.911Z,96576.97
2024-03-01T23:58:50.604Z,96571.47
